createdAt,value
2023-03-02T00:01:32.187Z,101620.20
2023-03-02T00:03:06.549Z,101622.00
2023-03-02T00:04:48.955Z,101624.40
2023-03-02T00:06:20.731Z,101622.60
2023-03-02T00:07:54.660Z,101619.80
2023-03-02T00:09:28.517Z,101620.80
2023-03-02T00:11:01.930Z,101618.80
2023-03-02T00:12:34.955Z,101618.00
2023-03-02T00:14:07.423Z,101627.20
2023-03-02T00:15:39.380Z,101626.80
2023-03-02T00:17:11.150Z,101626.60
2023-03-02T00:18:42.845Z,101626.60
2023-03-02T00:20:14.859Z,101623.00
2023-03-02T00:21:46.635Z,101621.00
2023-03-02T00:23:19.215Z,101623.40
2023-03-02T00:24:51.066Z,101621.40
2023-03-02T00:26:23.086Z,101619.60
2023-03-02T00:27:54.853Z,101618.20
2023-03-02T00:29:26.736Z,101615.60
2023-03-02T00:30:58.674Z,101614.80
2023-03-02T00:32:31.201Z,101613.80
2023-03-02T00:34:03.049Z,101619.20
2023-03-02T00:35:41.837Z,101621.20
2023-03-02T00:37:13.662Z,101621.20
2023-03-02T00:38:46.309Z,101622.60
2023-03-02T00:40:18.207Z,101620.20
2023-03-02T00:41:50.366Z,101614.40
2023-03-02T00:43:27.273Z,101614.80
2023-03-02T00:45:01.534Z,101612.80
2023-03-02T00:46:33.644Z,101616.20
2023-03-02T00:48:05.913Z,101610.40
2023-03-02T00:49:38.157Z,101605.20
2023-03-02T00:51:10.428Z,101602.80
2023-03-02T00:52:42.423Z,101603.40
2023-03-02T00:54:14.768Z,101607.20
2023-03-02T00:55:55.025Z,101598.40
2023-03-02T00:57:27.313Z,101606.00
2023-03-02T00:59:06.602Z,101599.60
2023-03-02T01:00:38.549Z,101600.00
2023-03-02T01:02:11.408Z,101596.20
2023-03-02T01:03:43.170Z,101600.20
2023-03-02T01:05:16.747Z,101596.40
2023-03-02T01:06:48.447Z,101596.20
2023-03-02T01:08:20.237Z,101598.20
2023-03-02T01:09:52.504Z,101602.60
2023-03-02T01:11:24.223Z,101601.60
2023-03-02T01:12:56.963Z,101601.60
2023-03-02T01:14:29.011Z,101606.60
2023-03-02T01:16:05.049Z,101603.60
2023-03-02T01:17:36.819Z,101596.20
2023-03-02T01:19:08.909Z,101598.40
2023-03-02T01:20:40.647Z,101598.80
2023-03-02T01:22:12.466Z,101595.80
2023-03-02T01:23:44.381Z,101595.20
2023-03-02T01:25:17.052Z,101595.60
2023-03-02T01:26:48.817Z,101592.20
2023-03-02T01:28:20.594Z,101593.60
2023-03-02T01:29:52.368Z,101595.20
2023-03-02T01:31:28.505Z,101592.00
2023-03-02T01:33:00.273Z,101591.80
2023-03-02T01:34:32.436Z,101591.00
2023-03-02T01:36:05.406Z,101588.00
2023-03-02T01:37:37.124Z,101591.20
2023-03-02T01:39:08.836Z,101584.80
2023-03-02T01:40:40.615Z,101582.60
2023-03-02T01:42:12.417Z,101581.40
2023-03-02T01:43:44.171Z,101579.00
2023-03-02T01:45:51.636Z,101584.00
2023-03-02T01:47:35.082Z,101584.80
2023-03-02T01:49:19.716Z,101577.80
2023-03-02T01:50:58.812Z,101578.00
2023-03-02T01:52:35.397Z,101572.60
2023-03-02T01:54:17.279Z,101569.40
2023-03-02T01:55:49.234Z,101571.60
2023-03-02T01:57:27.948Z,101572.00
2023-03-02T01:59:07.660Z,101570.40
2023-03-02T02:00:41.613Z,101567.40
2023-03-02T02:02:13.670Z,101564.80
2023-03-02T02:03:50.580Z,101568.60
2023-03-02T02:05:27.185Z,101567.40
2023-03-02T02:07:05.688Z,101571.00
2023-03-02T02:08:39.825Z,101566.60
2023-03-02T02:10:15.229Z,101562.40
2023-03-02T02:11:49.561Z,101560.40
2023-03-02T02:13:21.347Z,101558.20
2023-03-02T02:14:55.189Z,101560.80
2023-03-02T02:16:31.674Z,101556.80
2023-03-02T02:18:04.492Z,101558.40
2023-03-02T02:19:50.396Z,101555.40
2023-03-02T02:21:25.453Z,101554.00
2023-03-02T02:23:16.224Z,101553.20
2023-03-02T02:24:58.583Z,101550.60
2023-03-02T02:26:53.149Z,101547.00
2023-03-02T02:28:42.350Z,101550.00
2023-03-02T02:30:17.037Z,101548.40
2023-03-02T02:31:57.566Z,101549.60
2023-03-02T02:33:31.997Z,101544.40
2023-03-02T02:35:27.414Z,101542.00
2023-03-02T02:37:28.811Z,101539.00
2023-03-02T02:39:05.045Z,101534.40
2023-03-02T02:40:54.544Z,101530.60
2023-03-02T02:42:38.222Z,101535.80
2023-03-02T02:44:17.315Z,101531.60
2023-03-02T02:45:56.810Z,101531.80
2023-03-02T02:47:30.257Z,101532.40
2023-03-02T02:49:06.328Z,101536.80
2023-03-02T02:50:38.133Z,101532.60
2023-03-02T02:52:17.509Z,101529.40
2023-03-02T02:54:02.704Z,101529.20
2023-03-02T02:55:41.259Z,101528.00
2023-03-02T02:57:17.765Z,101525.60
2023-03-02T02:58:55.971Z,101525.80
2023-03-02T03:00:29.154Z,101523.60
2023-03-02T03:02:01.601Z,101528.40
2023-03-02T03:03:39.356Z,101532.40
2023-03-02T03:05:17.065Z,101528.80
2023-03-02T03:07:05.847Z,101532.00
2023-03-02T03:08:54.166Z,101531.00
2023-03-02T03:10:40.100Z,101531.80
2023-03-02T03:12:22.048Z,101525.40
2023-03-02T03:14:20.037Z,101532.20
2023-03-02T03:15:52.404Z,101535.40
2023-03-02T03:17:24.182Z,101534.00
2023-03-02T03:19:26.182Z,101531.40
2023-03-02T03:20:58.198Z,101533.40
2023-03-02T03:22:29.978Z,101535.20
2023-03-02T03:24:02.297Z,101532.40
2023-03-02T03:25:35.033Z,101533.40
2023-03-02T03:27:09.561Z,101531.20
2023-03-02T03:28:42.745Z,101527.60
2023-03-02T03:30:15.879Z,101524.80
2023-03-02T03:31:47.832Z,101523.40
2023-03-02T03:33:19.616Z,101524.40
2023-03-02T03:34:51.711Z,101521.60
2023-03-02T03:36:31.995Z,101522.00
2023-03-02T03:38:07.599Z,101525.20
2023-03-02T03:39:40.299Z,101527.00
2023-03-02T03:41:13.006Z,101522.80
2023-03-02T03:42:44.777Z,101526.80
2023-03-02T03:44:17.261Z,101525.60
2023-03-02T03:45:51.599Z,101525.40
2023-03-02T03:47:24.464Z,101528.60
2023-03-02T03:48:57.307Z,101533.20
2023-03-02T03:50:29.192Z,101530.80
2023-03-02T03:52:01.540Z,101529.00
2023-03-02T03:53:33.632Z,101535.00
2023-03-02T03:55:06.697Z,101531.40
2023-03-02T03:56:42.827Z,101535.00
2023-03-02T03:58:14.762Z,101532.20
2023-03-02T03:59:46.545Z,101533.60
2023-03-02T04:01:18.905Z,101533.40
2023-03-02T04:02:51.844Z,101528.60
2023-03-02T04:04:29.361Z,101526.60
2023-03-02T04:06:01.372Z,101532.20
2023-03-02T04:07:38.598Z,101531.40
2023-03-02T04:09:12.321Z,101530.60
2023-03-02T04:10:45.296Z,101529.60
2023-03-02T04:12:17.268Z,101533.00
2023-03-02T04:13:54.986Z,101533.80
2023-03-02T04:15:27.603Z,101527.80
2023-03-02T04:17:00.517Z,101529.80
2023-03-02T04:18:32.474Z,101532.00
2023-03-02T04:20:08.291Z,101532.40
2023-03-02T04:21:45.937Z,101530.80
2023-03-02T04:23:18.171Z,101529.80
2023-03-02T04:24:52.372Z,101532.20
2023-03-02T04:26:26.267Z,101530.60
2023-03-02T04:27:58.291Z,101530.60
2023-03-02T04:29:34.401Z,101525.40
2023-03-02T04:31:07.177Z,101525.80
2023-03-02T04:32:39.127Z,101520.80
2023-03-02T04:34:10.921Z,101520.40
2023-03-02T04:35:44.773Z,101522.40
2023-03-02T04:37:16.690Z,101514.80
2023-03-02T04:38:49.534Z,101520.80
2023-03-02T04:40:21.539Z,101518.20
2023-03-02T04:41:54.016Z,101524.60
2023-03-02T04:43:26.526Z,101523.60
2023-03-02T04:44:58.542Z,101525.00
2023-03-02T04:46:30.475Z,101519.60
2023-03-02T04:48:02.559Z,101523.00
2023-03-02T04:49:34.277Z,101524.00
2023-03-02T04:51:06.342Z,101523.60
2023-03-02T04:52:38.556Z,101524.00
2023-03-02T04:54:26.582Z,101526.60
2023-03-02T04:55:58.595Z,101520.80
2023-03-02T04:57:30.589Z,101525.40
2023-03-02T04:59:02.730Z,101520.40
2023-03-02T05:00:35.714Z,101520.80
2023-03-02T05:02:08.140Z,101526.80
2023-03-02T05:03:40.155Z,101526.60
2023-03-02T05:05:19.738Z,101527.80
2023-03-02T05:06:51.742Z,101529.00
2023-03-02T05:08:24.453Z,101527.40
2023-03-02T05:09:56.196Z,101530.40
2023-03-02T05:11:28.409Z,101524.80
2023-03-02T05:13:05.185Z,101522.40
2023-03-02T05:14:36.938Z,101526.20
2023-03-02T05:16:08.922Z,101522.60
2023-03-02T05:17:40.775Z,101522.60
2023-03-02T05:19:13.406Z,101522.60
2023-03-02T05:20:46.706Z,101521.00
2023-03-02T05:22:20.988Z,101521.40
2023-03-02T05:23:53.409Z,101521.40
2023-03-02T05:25:28.820Z,101522.80
2023-03-02T05:27:00.550Z,101519.00
2023-03-02T05:28:33.375Z,101516.00
2023-03-02T05:30:09.077Z,101515.40
2023-03-02T05:31:44.231Z,101516.80
2023-03-02T05:33:17.768Z,101519.40
2023-03-02T05:34:49.659Z,101521.00
2023-03-02T05:36:23.330Z,101516.20
2023-03-02T05:37:55.397Z,101514.40
2023-03-02T05:39:27.613Z,101514.40
2023-03-02T05:40:59.301Z,101519.40
2023-03-02T05:42:31.096Z,101518.60
2023-03-02T05:44:04.153Z,101518.40
2023-03-02T05:45:38.936Z,101512.80
2023-03-02T05:47:10.721Z,101519.20
2023-03-02T05:48:42.916Z,101511.00
2023-03-02T05:50:14.849Z,101511.00
2023-03-02T05:51:46.574Z,101509.20
2023-03-02T05:53:18.693Z,101512.40
2023-03-02T05:54:50.465Z,101515.20
2023-03-02T05:56:22.621Z,101512.20
2023-03-02T05:57:54.673Z,101517.80
2023-03-02T05:59:26.619Z,101517.60
2023-03-02T06:00:58.869Z,101516.40
2023-03-02T06:02:30.801Z,101516.20
2023-03-02T06:04:02.968Z,101521.40
2023-03-02T06:05:35.651Z,101525.00
2023-03-02T06:07:07.528Z,101527.80
2023-03-02T06:08:41.248Z,101521.80
2023-03-02T06:10:16.474Z,101528.80
2023-03-02T06:11:48.927Z,101528.20
2023-03-02T06:13:20.629Z,101531.60
2023-03-02T06:14:52.707Z,101526.80
2023-03-02T06:16:24.428Z,101527.20
2023-03-02T06:17:57.775Z,101528.40
2023-03-02T06:19:29.696Z,101530.20
2023-03-02T06:21:01.615Z,101532.40
2023-03-02T06:22:33.460Z,101533.80
2023-03-02T06:24:05.917Z,101538.80
2023-03-02T06:25:43.614Z,101538.40
2023-03-02T06:27:16.899Z,101538.60
2023-03-02T06:28:53.753Z,101540.20
2023-03-02T06:30:27.958Z,101539.00
2023-03-02T06:31:59.961Z,101540.80
2023-03-02T06:33:32.439Z,101546.20
2023-03-02T06:35:06.651Z,101540.40
2023-03-02T06:36:39.495Z,101539.40
2023-03-02T06:38:11.526Z,101545.80
2023-03-02T06:39:43.289Z,101539.20
2023-03-02T06:41:16.316Z,101539.20
2023-03-02T06:42:48.285Z,101543.20
2023-03-02T06:44:19.991Z,101544.40
2023-03-02T06:45:51.866Z,101544.80
2023-03-02T06:47:24.489Z,101545.00
2023-03-02T06:48:56.179Z,101541.40
2023-03-02T06:50:28.784Z,101551.80
2023-03-02T06:52:00.567Z,101545.20
2023-03-02T06:53:32.571Z,101546.60
2023-03-02T06:55:05.371Z,101547.80
2023-03-02T06:56:37.845Z,101546.00
2023-03-02T06:58:13.197Z,101547.60
2023-03-02T06:59:44.993Z,101545.40
2023-03-02T07:01:16.965Z,101543.00
2023-03-02T07:02:50.128Z,101540.00
2023-03-02T07:04:21.893Z,101543.00
2023-03-02T07:05:53.688Z,101541.60
2023-03-02T07:07:25.610Z,101539.20
2023-03-02T07:08:57.690Z,101544.40
2023-03-02T07:10:29.570Z,101539.20
2023-03-02T07:12:01.296Z,101545.80
2023-03-02T07:13:33.207Z,101544.20
2023-03-02T07:15:12.406Z,101547.40
2023-03-02T07:16:44.369Z,101539.60
2023-03-02T07:18:16.314Z,101542.60
2023-03-02T07:19:48.061Z,101545.20
2023-03-02T07:21:21.168Z,101540.00
2023-03-02T07:22:53.102Z,101524.80
2023-03-02T07:24:25.214Z,101507.20
2023-03-02T07:25:59.796Z,101542.00
2023-03-02T07:27:33.590Z,101539.60
2023-03-02T07:29:06.339Z,101541.80
2023-03-02T07:30:38.220Z,101544.00
2023-03-02T07:32:12.450Z,101547.60
2023-03-02T07:33:46.501Z,101548.20
2023-03-02T07:35:18.992Z,101548.20
2023-03-02T07:36:52.090Z,101552.60
2023-03-02T07:38:24.067Z,101551.00
2023-03-02T07:39:55.904Z,101552.00
2023-03-02T07:41:27.805Z,101554.40
2023-03-02T07:42:59.891Z,101551.40
2023-03-02T07:44:31.839Z,101549.00
2023-03-02T07:46:07.422Z,101548.60
2023-03-02T07:47:39.276Z,101552.60
2023-03-02T07:49:11.032Z,101556.20
2023-03-02T07:50:42.817Z,101550.20
2023-03-02T07:52:15.502Z,101554.40
2023-03-02T07:53:47.275Z,101551.20
2023-03-02T07:55:19.735Z,101554.60
2023-03-02T07:56:51.525Z,101557.60
2023-03-02T07:58:24.673Z,101558.80
2023-03-02T07:59:56.457Z,101556.40
2023-03-02T08:01:28.251Z,101557.00
2023-03-02T08:03:00.207Z,101556.00
2023-03-02T08:04:35.929Z,101559.60
2023-03-02T08:06:12.516Z,101559.80
2023-03-02T08:07:46.792Z,101564.00
2023-03-02T08:09:18.799Z,101565.20
2023-03-02T08:10:50.607Z,101563.40
2023-03-02T08:12:23.747Z,101561.80
2023-03-02T08:13:55.590Z,101564.20
2023-03-02T08:15:27.382Z,101559.40
2023-03-02T08:16:59.133Z,101557.40
2023-03-02T08:18:31.875Z,101559.80
2023-03-02T08:20:04.957Z,101558.20
2023-03-02T08:21:37.099Z,101557.80
2023-03-02T08:23:14.935Z,101558.80
2023-03-02T08:24:46.960Z,101560.00
2023-03-02T08:26:20.277Z,101555.60
2023-03-02T08:27:52.044Z,101553.40
2023-03-02T08:29:24.774Z,101553.00
2023-03-02T08:31:01.972Z,101551.20
2023-03-02T08:32:34.847Z,101553.40
2023-03-02T08:34:06.884Z,101551.80
2023-03-02T08:35:38.699Z,101549.80
2023-03-02T08:37:10.554Z,101547.20
2023-03-02T08:38:42.980Z,101544.00
2023-03-02T08:40:15.155Z,101552.20
2023-03-02T08:41:46.860Z,101549.20
2023-03-02T08:43:20.420Z,101547.40
2023-03-02T08:44:52.213Z,101549.80
2023-03-02T08:46:24.056Z,101548.60
2023-03-02T08:47:55.900Z,101548.00
2023-03-02T08:49:27.979Z,101547.40
2023-03-02T08:51:07.388Z,101544.00
2023-03-02T08:52:39.109Z,101541.60
2023-03-02T08:54:11.449Z,101539.60
2023-03-02T08:55:43.140Z,101542.40
2023-03-02T08:57:14.899Z,101538.60
2023-03-02T08:58:48.939Z,101538.20
2023-03-02T09:00:21.082Z,101536.00
2023-03-02T09:01:52.986Z,101528.20
2023-03-02T09:03:25.099Z,101527.80
2023-03-02T09:04:56.820Z,101525.60
2023-03-02T09:06:31.185Z,101533.20
2023-03-02T09:08:05.152Z,101528.40
2023-03-02T09:09:37.005Z,101534.20
2023-03-02T09:11:09.549Z,101532.40
2023-03-02T09:12:41.268Z,101532.80
2023-03-02T09:14:13.429Z,101532.60
2023-03-02T09:15:45.288Z,101529.40
2023-03-02T09:17:17.327Z,101532.80
2023-03-02T09:18:49.032Z,101534.20
2023-03-02T09:20:21.018Z,101531.60
2023-03-02T09:21:52.824Z,101526.00
2023-03-02T09:23:26.764Z,101532.20
2023-03-02T09:24:58.482Z,101525.80
2023-03-02T09:26:30.283Z,101527.20
2023-03-02T09:28:02.138Z,101524.00
2023-03-02T09:29:33.832Z,101526.00
2023-03-02T09:31:08.870Z,101521.80
2023-03-02T09:32:41.357Z,101525.60
2023-03-02T09:34:13.207Z,101522.00
2023-03-02T09:35:45.722Z,101523.80
2023-03-02T09:37:17.478Z,101526.80
2023-03-02T09:38:50.062Z,101519.20
2023-03-02T09:40:25.839Z,101523.40
2023-03-02T09:42:16.281Z,101517.20
2023-03-02T09:44:18.395Z,101516.40
2023-03-02T09:46:29.013Z,101517.20
2023-03-02T09:48:25.588Z,101512.40
2023-03-02T09:50:25.713Z,101521.60
2023-03-02T09:52:33.691Z,101522.40
2023-03-02T09:54:20.598Z,101518.20
2023-03-02T09:56:01.736Z,101524.00
2023-03-02T09:57:38.634Z,101520.60
2023-03-02T09:59:45.280Z,101515.40
2023-03-02T10:01:34.681Z,101516.20
2023-03-02T10:03:17.702Z,101520.40
2023-03-02T10:04:54.526Z,101520.40
2023-03-02T10:06:26.855Z,101519.40
2023-03-02T10:07:59.514Z,101513.80
2023-03-02T10:09:31.331Z,101518.60
2023-03-02T10:11:13.471Z,101515.20
2023-03-02T10:13:21.404Z,101522.00
2023-03-02T10:15:05.480Z,101521.20
2023-03-02T10:17:05.878Z,101525.40
2023-03-02T10:19:09.902Z,101518.80
2023-03-02T10:20:52.778Z,101515.80
2023-03-02T10:22:32.565Z,101521.60
2023-03-02T10:24:34.124Z,101517.80
2023-03-02T10:26:27.460Z,101516.20
2023-03-02T10:28:19.158Z,101515.80
2023-03-02T10:30:19.321Z,101522.20
2023-03-02T10:32:00.267Z,101520.40
2023-03-02T10:33:33.653Z,101520.60
2023-03-02T10:35:23.129Z,101520.40
2023-03-02T10:36:55.120Z,101517.60
2023-03-02T10:38:29.355Z,101517.20
2023-03-02T10:40:01.149Z,101518.20
2023-03-02T10:41:41.559Z,101511.20
2023-03-02T10:43:47.005Z,101510.80
2023-03-02T10:45:31.006Z,101515.00
2023-03-02T10:47:03.125Z,101511.60
2023-03-02T10:48:59.598Z,101507.40
2023-03-02T10:50:32.492Z,101515.40
2023-03-02T10:52:17.519Z,101515.00
2023-03-02T10:53:49.323Z,101514.80
2023-03-02T10:55:21.065Z,101514.40
2023-03-02T10:56:57.937Z,101513.00
2023-03-02T10:58:33.486Z,101510.00
2023-03-02T11:00:25.741Z,101505.00
2023-03-02T11:02:10.169Z,101504.40
2023-03-02T11:03:42.047Z,101509.00
2023-03-02T11:05:44.387Z,101509.00
2023-03-02T11:07:20.745Z,101506.40
2023-03-02T11:09:05.195Z,101504.40
2023-03-02T11:10:52.463Z,101501.80
2023-03-02T11:12:25.112Z,101502.20
2023-03-02T11:14:17.406Z,101501.00
2023-03-02T11:15:53.136Z,101501.60
2023-03-02T11:17:37.795Z,101499.40
2023-03-02T11:19:15.299Z,101501.00
2023-03-02T11:20:54.704Z,101504.40
2023-03-02T11:22:45.274Z,101506.40
2023-03-02T11:24:28.612Z,101500.20
2023-03-02T11:26:12.001Z,101499.60
2023-03-02T11:27:45.996Z,101502.20
2023-03-02T11:29:45.321Z,101505.80
2023-03-02T11:31:44.449Z,101507.00
2023-03-02T11:33:36.280Z,101504.00
2023-03-02T11:35:21.540Z,101495.60
2023-03-02T11:37:14.665Z,101496.00
2023-03-02T11:38:52.746Z,101495.60
2023-03-02T11:40:30.712Z,101492.20
2023-03-02T11:42:02.729Z,101485.80
2023-03-02T11:43:34.612Z,101489.00
2023-03-02T11:45:22.221Z,101482.40
2023-03-02T11:47:01.122Z,101485.20
2023-03-02T11:48:38.285Z,101482.00
2023-03-02T11:50:15.482Z,101483.00
2023-03-02T11:52:00.251Z,101477.80
2023-03-02T11:54:11.017Z,101483.20
2023-03-02T11:55:48.512Z,101475.20
2023-03-02T11:57:48.547Z,101473.80
2023-03-02T11:59:23.662Z,101474.20
2023-03-02T12:00:57.959Z,101465.20
2023-03-02T12:02:29.788Z,101463.00
2023-03-02T12:04:33.656Z,101457.20
2023-03-02T12:06:27.741Z,101457.40
2023-03-02T12:08:31.096Z,101460.80
2023-03-02T12:10:42.812Z,101458.20
2023-03-02T12:12:26.733Z,101449.60
2023-03-02T12:14:03.387Z,101453.60
2023-03-02T12:15:39.903Z,101445.60
2023-03-02T12:17:26.697Z,101449.40
2023-03-02T12:18:58.413Z,101445.00
2023-03-02T12:20:30.989Z,101448.20
2023-03-02T12:22:10.508Z,101451.20
2023-03-02T12:23:58.212Z,101444.00
2023-03-02T12:25:41.480Z,101440.40
2023-03-02T12:27:13.132Z,101440.00
2023-03-02T12:29:04.147Z,101432.20
2023-03-02T12:30:36.144Z,101430.60
2023-03-02T12:32:26.934Z,101429.20
2023-03-02T12:34:00.744Z,101426.60
2023-03-02T12:35:34.669Z,101431.00
2023-03-02T12:37:18.013Z,101428.00
2023-03-02T12:39:09.519Z,101426.60
2023-03-02T12:41:22.222Z,101427.60
2023-03-02T12:43:27.792Z,101424.60
2023-03-02T12:45:25.726Z,101436.80
2023-03-02T12:46:59.509Z,101432.40
2023-03-02T12:49:06.083Z,101429.40
2023-03-02T12:50:40.783Z,101425.40
2023-03-02T12:52:30.734Z,101427.80
2023-03-02T12:54:12.517Z,101423.20
2023-03-02T12:55:44.333Z,101422.80
2023-03-02T12:57:20.165Z,101417.20
2023-03-02T12:58:54.605Z,101414.00
2023-03-02T13:00:32.935Z,101418.60
2023-03-02T13:02:19.681Z,101417.40
2023-03-02T13:03:53.790Z,101412.60
2023-03-02T13:05:30.527Z,101411.20
2023-03-02T13:07:02.305Z,101406.00
2023-03-02T13:08:34.417Z,101408.00
2023-03-02T13:10:25.608Z,101400.80
2023-03-02T13:11:58.084Z,101396.00
2023-03-02T13:13:32.649Z,101397.20
2023-03-02T13:15:16.394Z,101395.00
2023-03-02T13:16:55.461Z,101392.40
2023-03-02T13:18:35.470Z,101394.20
2023-03-02T13:20:10.309Z,101392.00
2023-03-02T13:21:42.701Z,101384.20
2023-03-02T13:23:16.731Z,101390.80
2023-03-02T13:25:03.451Z,101384.60
2023-03-02T13:26:39.861Z,101383.40
2023-03-02T13:28:31.288Z,101378.00
2023-03-02T13:32:44.283Z,101384.00
2023-03-02T13:34:33.210Z,101380.40
2023-03-02T13:36:05.354Z,101379.40
2023-03-02T13:37:44.223Z,101381.20
2023-03-02T13:39:27.007Z,101374.80
2023-03-02T13:40:59.289Z,101384.60
2023-03-02T13:42:40.937Z,101375.60
2023-03-02T13:44:25.831Z,101376.60
2023-03-02T13:46:12.741Z,101379.00
2023-03-02T13:47:45.318Z,101380.40
2023-03-02T13:49:32.997Z,101377.20
2023-03-02T13:51:18.348Z,101380.40
2023-03-02T13:52:52.382Z,101384.00
2023-03-02T13:54:32.076Z,101378.20
2023-03-02T13:56:04.965Z,101377.20
2023-03-02T13:57:36.743Z,101373.40
2023-03-02T13:59:14.744Z,101370.80
2023-03-02T14:00:47.507Z,101369.80
2023-03-02T14:02:31.243Z,101364.20
2023-03-02T14:04:03.921Z,101365.40
2023-03-02T14:05:35.957Z,101364.60
2023-03-02T14:07:07.926Z,101363.80
2023-03-02T14:08:39.731Z,101363.00
2023-03-02T14:10:17.363Z,101354.60
2023-03-02T14:11:54.255Z,101358.40
2023-03-02T14:13:52.742Z,101353.00
2023-03-02T14:15:25.248Z,101352.60
2023-03-02T14:16:57.335Z,101354.00
2023-03-02T14:18:41.911Z,101351.40
2023-03-02T14:20:19.375Z,101349.00
2023-03-02T14:21:51.491Z,101349.60
2023-03-02T14:23:26.633Z,101352.60
2023-03-02T14:24:59.093Z,101351.40
2023-03-02T14:26:49.409Z,101348.40
2023-03-02T14:28:33.069Z,101347.80
2023-03-02T14:30:19.242Z,101344.80
2023-03-02T14:31:51.623Z,101345.40
2023-03-02T14:33:24.550Z,101344.40
2023-03-02T14:34:56.850Z,101342.20
2023-03-02T14:36:36.956Z,101336.00
2023-03-02T14:38:11.554Z,101340.20
2023-03-02T14:39:52.369Z,101335.00
2023-03-02T14:41:26.523Z,101338.20
2023-03-02T14:42:58.331Z,101333.00
2023-03-02T14:44:30.214Z,101335.60
2023-03-02T14:46:02.110Z,101335.40
2023-03-02T14:47:34.004Z,101332.60
2023-03-02T14:49:05.835Z,101334.80
2023-03-02T14:50:42.956Z,101336.00
2023-03-02T14:52:34.976Z,101332.00
2023-03-02T14:54:14.084Z,101334.60
2023-03-02T14:55:47.287Z,101334.20
2023-03-02T14:57:27.967Z,101333.80
2023-03-02T14:59:00.233Z,101326.80
2023-03-02T15:00:32.494Z,101332.20
2023-03-02T15:02:19.013Z,101328.80
2023-03-02T15:03:55.925Z,101325.60
2023-03-02T15:05:27.903Z,101329.60
2023-03-02T15:06:59.809Z,101332.20
2023-03-02T15:08:31.765Z,101323.20
2023-03-02T15:10:04.029Z,101321.20
2023-03-02T15:11:36.011Z,101319.80
2023-03-02T15:13:13.808Z,101321.00
2023-03-02T15:14:45.659Z,101321.00
2023-03-02T15:16:17.554Z,101315.60
2023-03-02T15:17:49.400Z,101318.20
2023-03-02T15:19:21.158Z,101315.20
2023-03-02T15:20:52.841Z,101321.00
2023-03-02T15:22:24.982Z,101323.00
2023-03-02T15:23:56.765Z,101316.60
2023-03-02T15:25:29.121Z,101319.80
2023-03-02T15:27:04.300Z,101317.20
2023-03-02T15:28:36.209Z,101319.00
2023-03-02T15:30:09.793Z,101311.80
2023-03-02T15:31:41.651Z,101319.80
2023-03-02T15:33:13.569Z,101318.20
2023-03-02T15:34:45.446Z,101321.20
2023-03-02T15:36:17.921Z,101318.60
2023-03-02T15:37:49.731Z,101312.40
2023-03-02T15:39:21.539Z,101316.60
2023-03-02T15:40:53.511Z,101316.60
2023-03-02T15:42:25.640Z,101318.20
2023-03-02T15:43:57.418Z,101319.60
2023-03-02T15:45:29.190Z,101319.60
2023-03-02T15:47:01.706Z,101317.40
2023-03-02T15:48:33.574Z,101316.00
2023-03-02T15:50:06.385Z,101315.00
2023-03-02T15:51:38.278Z,101321.40
2023-03-02T15:53:09.988Z,101318.00
2023-03-02T15:54:42.076Z,101321.20
2023-03-02T15:56:17.087Z,101321.60
2023-03-02T15:57:48.972Z,101320.20
2023-03-02T15:59:25.881Z,101315.40
2023-03-02T16:00:57.795Z,101326.00
2023-03-02T16:02:29.530Z,101325.40
2023-03-02T16:04:01.298Z,101327.60
2023-03-02T16:05:33.061Z,101332.00
2023-03-02T16:07:04.929Z,101334.80
2023-03-02T16:08:37.232Z,101334.60
2023-03-02T16:10:15.358Z,101335.00
2023-03-02T16:11:49.821Z,101335.60
2023-03-02T16:13:21.594Z,101335.60
2023-03-02T16:14:53.468Z,101334.80
2023-03-02T16:16:26.427Z,101332.40
2023-03-02T16:17:58.232Z,101330.00
2023-03-02T16:19:30.094Z,101336.60
2023-03-02T16:21:03.567Z,101335.60
2023-03-02T16:22:35.404Z,101335.00
2023-03-02T16:24:08.007Z,101341.60
2023-03-02T16:25:47.466Z,101338.60
2023-03-02T16:27:19.380Z,101343.80
2023-03-02T16:28:51.173Z,101341.80
2023-03-02T16:30:23.719Z,101340.00
2023-03-02T16:31:57.777Z,101342.00
2023-03-02T16:33:30.565Z,101353.80
2023-03-02T16:35:02.315Z,101349.80
2023-03-02T16:36:36.816Z,101347.20
2023-03-02T16:38:09.900Z,101348.40
2023-03-02T16:39:41.620Z,101346.40
2023-03-02T16:41:23.192Z,101347.80
2023-03-02T16:42:55.550Z,101347.20
2023-03-02T16:44:27.556Z,101350.40
2023-03-02T16:45:59.659Z,101349.40
2023-03-02T16:47:31.562Z,101350.00
2023-03-02T16:49:05.290Z,101353.20
2023-03-02T16:50:37.544Z,101347.40
2023-03-02T16:52:09.476Z,101351.60
2023-03-02T16:53:41.788Z,101352.60
2023-03-02T16:55:18.925Z,101358.00
2023-03-02T16:56:50.783Z,101358.60
2023-03-02T16:58:22.646Z,101360.60
2023-03-02T16:59:54.348Z,101370.20
2023-03-02T17:01:26.424Z,101364.40
2023-03-02T17:02:58.224Z,101367.80
2023-03-02T17:04:30.008Z,101368.80
2023-03-02T17:06:02.804Z,101371.80
2023-03-02T17:07:34.787Z,101369.20
2023-03-02T17:09:06.570Z,101369.00
2023-03-02T17:10:39.358Z,101374.20
2023-03-02T17:12:11.179Z,101367.80
2023-03-02T17:13:42.947Z,101371.40
2023-03-02T17:15:16.045Z,101374.20
2023-03-02T17:16:47.776Z,101372.60
2023-03-02T17:18:19.536Z,101375.00
2023-03-02T17:19:51.402Z,101379.60
2023-03-02T17:21:24.868Z,101386.20
2023-03-02T17:22:58.740Z,101382.00
2023-03-02T17:24:31.155Z,101386.20
2023-03-02T17:26:04.706Z,101388.20
2023-03-02T17:27:36.890Z,101393.80
2023-03-02T17:29:08.653Z,101393.60
2023-03-02T17:30:42.569Z,101398.20
2023-03-02T17:32:14.390Z,101404.20
2023-03-02T17:33:46.246Z,101407.60
2023-03-02T17:35:18.212Z,101408.80
2023-03-02T17:36:50.121Z,101417.00
2023-03-02T17:38:22.081Z,101412.20
2023-03-02T17:39:54.115Z,101416.00
2023-03-02T17:41:26.827Z,101418.20
2023-03-02T17:43:00.659Z,101420.40
2023-03-02T17:44:34.806Z,101419.20
2023-03-02T17:46:25.665Z,101416.80
2023-03-02T17:47:59.214Z,101416.60
2023-03-02T17:49:31.478Z,101420.80
2023-03-02T17:51:03.541Z,101424.60
2023-03-02T17:52:35.364Z,101425.20
2023-03-02T17:54:07.190Z,101421.40
2023-03-02T17:55:39.101Z,101429.00
2023-03-02T17:57:12.491Z,101430.40
2023-03-02T17:58:46.167Z,101432.00
2023-03-02T18:00:20.657Z,101431.60
2023-03-02T18:01:52.433Z,101436.00
2023-03-02T18:03:24.286Z,101438.80
2023-03-02T18:04:56.231Z,101441.60
2023-03-02T18:06:28.937Z,101450.80
2023-03-02T18:08:00.817Z,101451.40
2023-03-02T18:09:32.699Z,101452.00
2023-03-02T18:11:05.934Z,101459.40
2023-03-02T18:12:37.727Z,101463.60
2023-03-02T18:14:15.999Z,101463.80
2023-03-02T18:15:48.120Z,101468.00
2023-03-02T18:17:22.878Z,101469.40
2023-03-02T18:18:57.288Z,101466.40
2023-03-02T18:20:29.055Z,101471.00